Time;durP1;ratioP1;P1;durP2;ratioP2;P2;SDS_P1;SDS_P2;PMS_P1;PMS_P2;Temp;Humidity;BMP_temperature;BMP_pressure;BME280_temperature;BME280_humidity;BME280_pressure;Samples;Min_cycle;Max_cycle;Signal;HPM_P1;HPM_P2
2023/07/03 00:00:16;;;;;;;8.10;2.20;;;;;;;20.20;100.00;99866.01;105798;1254;60510;-44
2023/07/03 00:02:51;;;;;;;6.50;2.40;;;;;;;20.20;100.00;99861.41;105719;1259;60348;-42
2023/07/03 00:05:19;;;;;;;3.10;2.40;;;;;;;20.20;100.00;99856.73;105701;1254;73842;-42
2023/07/03 00:07:47;;;;;;;7.60;2.10;;;;;;;20.21;100.00;99853.70;105683;1260;63892;-42
2023/07/03 00:10:15;;;;;;;4.20;2.00;;;;;;;20.21;100.00;99848.98;105704;1260;71388;-42
2023/07/03 00:12:44;;;;;;;2.10;1.80;;;;;;;20.20;100.00;99838.70;105749;1257;60592;-43
2023/07/03 00:15:12;;;;;;;10.20;2.30;;;;;;;20.18;100.00;99833.73;105732;1259;60421;-44
2023/07/03 00:17:40;;;;;;;5.70;2.30;;;;;;;20.17;100.00;99825.94;105709;1255;73827;-44
2023/07/03 00:20:13;;;;;;;1.80;1.70;;;;;;;20.14;100.00;99823.34;105695;1257;65155;-44
2023/07/03 00:22:43;;;;;;;4.20;2.00;;;;;;;20.09;100.00;99818.59;105678;1255;72642;-44
2023/07/03 00:25:10;;;;;;;6.50;1.90;;;;;;;20.04;100.00;99808.91;105733;1254;60533;-42
2023/07/03 00:27:38;;;;;;;2.50;2.30;;;;;;;19.99;100.00;99805.29;105705;1258;60424;-43
2023/07/03 00:30:07;;;;;;;4.70;2.30;;;;;;;19.92;100.00;99794.52;105702;1260;73814;-44
2023/07/03 00:32:34;;;;;;;5.00;2.10;;;;;;;19.86;100.00;99787.04;105720;1254;65287;-44
2023/07/03 00:35:02;;;;;;;5.90;2.40;;;;;;;19.79;100.00;99780.30;105703;1257;72746;-43
2023/07/03 00:37:30;;;;;;;8.60;2.10;;;;;;;19.72;100.00;99771.86;105735;1254;60715;-44
2023/07/03 00:39:58;;;;;;;8.90;2.90;;;;;;;19.66;100.00;99761.73;105714;1258;60345;-43
2023/07/03 00:42:27;;;;;;;5.90;2.50;;;;;;;19.61;100.00;99760.33;105673;1254;73844;-45
2023/07/03 00:44:54;;;;;;;5.50;2.60;;;;;;;19.56;100.00;99757.34;105726;1260;63914;-44
2023/07/03 00:47:23;;;;;;;4.90;2.50;;;;;;;19.50;100.00;99758.23;105673;1257;71389;-43
2023/07/03 00:49:50;;;;;;;6.70;2.80;;;;;;;19.46;100.00;99760.65;105732;1258;60529;-47
2023/07/03 00:52:19;;;;;;;8.40;2.50;;;;;;;19.41;100.00;99764.27;105698;1255;60427;-45
2023/07/03 00:54:48;;;;;;;3.80;2.30;;;;;;;19.36;100.00;99759.14;105734;1254;72619;-41
2023/07/03 00:57:15;;;;;;;7.20;2.40;;;;;;;19.34;100.00;99755.45;105733;1253;64324;-44
2023/07/03 00:59:44;;;;;;;3.40;2.50;;;;;;;19.31;100.00;99753.89;105710;1260;70860;-41
2023/07/03 01:02:22;;;;;;;3.40;2.20;;;;;;;19.27;100.00;99757.67;105713;1258;60499;-42
2023/07/03 01:05:10;;;;;;;2.90;2.00;;;;;;;19.22;100.00;99770.05;105716;1251;60361;-43
2023/07/03 01:07:38;;;;;;;2.70;2.50;;;;;;;19.14;100.00;99789.30;105656;1260;73798;-43
2023/07/03 01:10:09;;;;;;;12.10;2.20;;;;;;;19.06;100.00;99813.92;105720;1261;62970;-44
2023/07/03 01:12:40;;;;;;;6.50;2.50;;;;;;;19.01;100.00;99839.95;105656;1261;71418;-41
2023/07/03 01:15:10;;;;;;;6.30;2.10;;;;;;;18.96;100.00;99870.47;105764;1261;60404;-43
2023/07/03 01:17:37;;;;;;;4.40;2.30;;;;;;;18.91;100.00;99893.48;105743;1254;60345;-41
2023/07/03 01:20:07;;;;;;;4.90;2.30;;;;;;;18.88;100.00;99919.04;105714;1254;72553;-43
2023/07/03 01:22:41;;;;;;;7.10;2.30;;;;;;;18.86;100.00;99952.22;105724;1254;64389;-42
2023/07/03 01:25:10;;;;;;;3.40;2.30;;;;;;;18.86;100.00;99979.65;105722;1258;72635;-44
2023/07/03 01:27:40;;;;;;;6.30;2.80;;;;;;;18.87;100.00;99994.46;105746;1259;60402;-44
2023/07/03 01:30:10;;;;;;;9.70;2.30;;;;;;;18.88;100.00;99995.77;105752;1255;60523;-43
2023/07/03 01:32:38;;;;;;;11.20;2.50;;;;;;;18.88;100.00;100003.27;105737;1260;73809;-49
2023/07/03 01:35:08;;;;;;;2.90;2.50;;;;;;;18.89;100.00;100014.02;105679;1257;63776;-48
2023/07/03 01:37:38;;;;;;;4.10;2.50;;;;;;;18.91;100.00;100026.35;105647;1259;71401;-49
2023/07/03 01:40:08;;;;;;;7.80;2.50;;;;;;;18.92;100.00;100035.73;105748;1259;60454;-47
2023/07/03 01:42:37;;;;;;;3.40;2.00;;;;;;;18.93;100.00;100031.14;105749;1259;60364;-45
2023/07/03 01:45:07;;;;;;;4.90;1.90;;;;;;;18.93;100.00;100025.15;105769;1257;72576;-45
2023/07/03 01:47:37;;;;;;;3.10;2.60;;;;;;;18.93;100.00;100027.95;105726;1260;62977;-41
2023/07/03 01:50:06;;;;;;;6.50;2.30;;;;;;;18.93;100.00;100027.98;105743;1258;71347;-43
2023/07/03 01:52:40;;;;;;;5.20;2.60;;;;;;;18.91;100.00;100027.58;105712;1254;60578;-44
2023/07/03 01:55:20;;;;;;;4.40;2.60;;;;;;;18.90;100.00;100023.46;105710;1257;60440;-45
2023/07/03 01:57:49;;;;;;;2.80;2.00;;;;;;;18.88;100.00;100022.00;105713;1258;73844;-43
2023/07/03 02:00:21;;;;;;;4.20;2.30;;;;;;;18.86;100.00;100029.95;105734;1259;63944;-44
2023/07/03 02:02:49;;;;;;;4.00;2.20;;;;;;;18.85;100.00;100034.05;105702;1260;70806;-45
2023/07/03 02:05:20;;;;;;;9.20;2.60;;;;;;;18.82;100.00;100044.70;105627;1254;60501;-48
2023/07/03 02:07:49;;;;;;;5.20;2.40;;;;;;;18.76;100.00;100045.40;105728;1252;60533;-45
2023/07/03 02:10:17;;;;;;;7.70;1.90;;;;;;;18.72;100.00;100044.79;105691;1260;73118;-42
2023/07/03 02:12:46;;;;;;;9.20;2.70;;;;;;;18.67;100.00;100050.48;105720;1254;63485;-41
2023/07/03 02:15:17;;;;;;;3.50;2.80;;;;;;;18.62;100.00;100062.14;105683;1256;71722;-44
2023/07/03 02:17:45;;;;;;;4.20;2.20;;;;;;;18.58;100.00;100071.65;105684;1260;60610;-43
2023/07/03 02:20:14;;;;;;;3.50;2.10;;;;;;;18.56;100.00;100087.46;105757;1252;60427;-41
2023/07/03 02:22:42;;;;;;;4.50;2.40;;;;;;;18.52;100.00;100104.60;105695;1253;72541;-43
2023/07/03 02:25:10;;;;;;;7.60;2.50;;;;;;;18.50;100.00;100118.52;105727;1257;64486;-43
2023/07/03 02:27:40;;;;;;;6.60;2.50;;;;;;;18.48;100.00;100126.55;105917;1257;71369;-42
2023/07/03 02:30:08;;;;;;;6.80;2.30;;;;;;;18.45;100.00;100135.09;105714;1254;61611;-43
2023/07/03 02:32:36;;;;;;;2.80;2.40;;;;;;;18.45;100.00;100147.33;105711;1255;60546;-41
2023/07/03 02:35:05;;;;;;;6.50;2.40;;;;;;;18.45;100.00;100157.25;105761;1259;73806;-42
2023/07/03 02:37:33;;;;;;;3.50;2.40;;;;;;;18.47;100.00;100157.85;105753;1260;65530;-41
2023/07/03 02:40:01;;;;;;;8.90;2.40;;;;;;;18.50;100.00;100157.85;105794;1254;71690;-43
2023/07/03 02:42:30;;;;;;;6.40;2.50;;;;;;;18.54;100.00;100152.35;105739;1254;61648;-42
2023/07/03 02:44:59;;;;;;;6.80;2.50;;;;;;;18.58;100.00;100157.41;105698;1259;60317;-44
2023/07/03 02:47:27;;;;;;;4.60;2.40;;;;;;;18.60;100.00;100158.49;105730;1260;73848;-42
2023/07/03 02:49:55;;;;;;;3.10;2.20;;;;;;;18.63;100.00;100168.85;105738;1257;64349;-43
2023/07/03 02:52:24;;;;;;;4.30;2.50;;;;;;;18.65;100.00;100181.31;105741;1254;71683;-44
2023/07/03 02:54:52;;;;;;;10.50;2.40;;;;;;;18.66;100.00;100184.02;105673;1260;60669;-43
2023/07/03 02:57:20;;;;;;;6.70;2.20;;;;;;;18.69;100.00;100191.73;105729;1252;60431;-43
2023/07/03 02:59:47;;;;;;;3.60;2.30;;;;;;;18.72;100.00;100195.25;105650;1260;73873;-43
2023/07/03 03:02:15;;;;;;;4.30;2.60;;;;;;;18.74;100.00;100203.86;105772;1253;63917;-44
2023/07/03 03:04:45;;;;;;;3.10;2.40;;;;;;;18.75;100.00;100208.89;105687;1257;72652;-45
2023/07/03 03:07:14;;;;;;;8.80;2.50;;;;;;;18.74;100.00;100215.20;105700;1254;61639;-42
2023/07/03 03:09:41;;;;;;;9.20;2.30;;;;;;;18.76;100.00;100222.11;105692;1254;60504;-43
2023/07/03 03:12:10;;;;;;;4.30;2.50;;;;;;;18.78;100.00;100227.92;105757;1252;73000;-43
2023/07/03 03:14:38;;;;;;;3.50;2.70;;;;;;;18.81;100.00;100236.52;105743;1254;63690;-45
2023/07/03 03:17:06;;;;;;;7.20;2.40;;;;;;;18.85;100.00;100242.25;105723;1254;70940;-45
2023/07/03 03:19:34;;;;;;;4.00;2.50;;;;;;;18.89;100.00;100243.55;105704;1256;60613;-45
2023/07/03 03:22:03;;;;;;;7.00;2.30;;;;;;;18.95;100.00;100249.71;105691;1253;60586;-44
2023/07/03 03:24:31;;;;;;;3.90;2.50;;;;;;;19.01;100.00;100249.06;105786;1255;72664;-44
2023/07/03 03:27:05;;;;;;;7.10;2.70;;;;;;;19.05;100.00;100253.23;105679;1267;65169;-42
2023/07/03 03:29:34;;;;;;;2.50;2.20;;;;;;;19.08;100.00;100251.92;105755;1254;71773;-45
2023/07/03 03:32:03;;;;;;;7.20;2.60;;;;;;;19.13;100.00;100252.95;105707;1258;60938;-44
2023/07/03 03:34:34;;;;;;;5.60;2.00;;;;;;;19.18;100.00;100258.92;105772;1257;60335;-44
2023/07/03 03:37:03;;;;;;;5.50;2.50;;;;;;;19.26;100.00;100267.19;105746;1254;73957;-43
2023/07/03 03:39:31;;;;;;;2.70;2.20;;;;;;;19.37;100.00;100272.01;105762;1260;64016;-42
2023/07/03 03:41:59;;;;;;;6.00;3.90;;;;;;;19.51;100.00;100260.19;105701;1254;72670;-44
2023/07/03 03:44:27;;;;;;;4.80;2.60;;;;;;;19.61;100.00;100247.84;105588;1260;60489;-43
2023/07/03 03:46:55;;;;;;;7.20;2.50;;;;;;;19.80;100.00;100238.39;105595;1255;61578;-48
2023/07/03 03:49:24;;;;;;;5.10;2.40;;;;;;;19.99;100.00;100204.65;105738;1252;72875;-43
2023/07/03 03:51:53;;;;;;;6.60;2.70;;;;;;;20.21;100.00;100186.47;105741;1260;64198;-44
2023/07/03 03:54:21;;;;;;;8.90;2.60;;;;;;;20.46;100.00;100157.77;105753;1254;73142;-43
2023/07/03 03:56:49;;;;;;;9.40;2.60;;;;;;;20.70;100.00;100114.66;105774;1258;60530;-42
2023/07/03 03:59:17;;;;;;;5.50;2.50;;;;;;;20.94;100.00;100065.05;105692;1257;60493;-42
2023/07/03 04:01:45;;;;;;;7.50;2.20;;;;;;;21.25;100.00;100032.21;105908;1256;73871;-44
2023/07/03 04:04:13;;;;;;;8.70;2.40;;;;;;;21.58;100.00;99986.21;105669;1260;63921;-44
2023/07/03 04:06:41;;;;;;;8.90;2.40;;;;;;;21.85;100.00;99911.77;105491;1260;331804;-46
2023/07/03 04:09:55;;;;;;;4.70;2.40;;;;;;;22.28;100.00;99835.33;102974;1289;600349;-43
2023/07/03 04:12:23;;;;;;;4.80;2.60;;;;;;;22.44;100.00;99784.50;105149;1264;59453;-42
2023/07/03 04:14:51;;;;;;;5.40;2.90;;;;;;;22.43;100.00;99767.91;105076;1266;59368;-45
2023/07/03 04:17:19;;;;;;;3.20;2.60;;;;;;;22.45;100.00;99769.48;105190;1263;72009;-44
2023/07/03 04:19:46;;;;;;;9.80;2.80;;;;;;;22.48;100.00;99771.73;105156;1264;64218;-47
2023/07/03 04:22:14;;;;;;;5.20;2.70;;;;;;;22.60;100.00;99775.91;105085;1264;71486;-45
2023/07/03 04:24:42;;;;;;;9.60;3.00;;;;;;;22.71;100.00;99776.06;105092;1261;216582;-44
2023/07/03 04:27:10;;;;;;;4.20;2.30;;;;;;;22.85;100.00;99775.46;105238;1260;59330;-41
2023/07/03 04:29:38;;;;;;;5.30;2.60;;;;;;;22.98;100.00;99779.20;105252;1266;70513;-42
2023/07/03 04:32:06;;;;;;;12.90;2.60;;;;;;;23.02;100.00;99789.77;105276;1264;65111;-44
2023/07/03 04:34:34;;;;;;;6.30;2.50;;;;;;;23.06;100.00;99801.09;105304;1260;71383;-41
2023/07/03 04:37:03;;;;;;;7.70;2.90;;;;;;;23.06;100.00;99811.47;105246;1261;59701;-42
2023/07/03 04:39:31;;;;;;;6.80;2.60;;;;;;;23.05;100.00;99816.83;105331;1264;59731;-42
2023/07/03 04:42:00;;;;;;;7.40;2.60;;;;;;;22.98;100.00;99826.53;105245;1266;73606;-42
2023/07/03 04:44:28;;;;;;;2.60;2.20;;;;;;;22.95;100.00;99822.48;105307;1259;65232;-44
2023/07/03 04:46:56;;;;;;;6.60;2.80;;;;;;;22.91;100.00;99826.73;105297;1261;71482;-44
2023/07/03 04:49:29;;;;;;;8.20;2.50;;;;;;;22.82;100.00;99832.18;105255;1260;60681;-45
2023/07/03 04:51:58;;;;;;;12.90;2.80;;;;;;;22.66;100.00;99836.77;105328;1264;59798;-42
2023/07/03 04:54:29;;;;;;;4.20;2.80;;;;;;;22.55;100.00;99836.23;105369;1260;72967;-44
2023/07/03 04:56:56;;;;;;;9.00;2.80;;;;;;;22.52;100.00;99838.35;105238;1265;65165;-42
2023/07/03 04:59:25;;;;;;;4.30;2.40;;;;;;;22.57;100.00;99840.63;105260;1261;71548;-43
2023/07/03 05:01:53;;;;;;;6.50;2.30;;;;;;;22.74;100.00;99844.27;105272;1263;59743;-42
2023/07/03 05:04:21;;;;;;;9.70;2.80;;;;;;;22.97;100.00;99835.55;105323;1264;59563;-45
2023/07/03 05:06:50;;;;;;;3.90;2.20;;;;;;;23.28;100.00;99828.69;105279;1260;73041;-44
2023/07/03 05:09:18;;;;;;;4.20;2.60;;;;;;;23.67;100.00;99822.34;105309;1259;63903;-44
2023/07/03 05:11:48;;;;;;;5.30;2.70;;;;;;;23.99;100.00;99827.59;105925;1254;71407;-45
2023/07/03 05:14:16;;;;;;;4.20;2.50;;;;;;;24.26;100.00;99845.27;105825;1251;60026;-44
2023/07/03 05:16:44;;;;;;;7.60;2.40;;;;;;;24.58;100.00;99864.80;105870;1251;59993;-43
2023/07/03 05:19:13;;;;;;;6.50;2.80;;;;;;;25.01;100.00;99878.00;105954;1251;72137;-42
2023/07/03 05:21:41;;;;;;;14.70;2.60;;;;;;;25.18;100.00;99947.61;105816;1251;65200;-45
2023/07/03 05:24:09;;;;;;;6.80;2.30;;;;;;;25.00;100.00;99995.77;105811;1254;72040;-44
2023/07/03 05:26:37;;;;;;;7.80;2.70;;;;;;;24.85;100.00;100013.09;105940;1253;59723;-45
2023/07/03 05:29:04;;;;;;;5.90;2.60;;;;;;;24.94;100.00;100004.02;105851;1251;59800;-45
2023/07/03 05:31:32;;;;;;;10.10;2.80;;;;;;;25.15;100.00;99996.77;105810;1257;72847;-47
2023/07/03 05:34:00;;;;;;;12.40;2.70;;;;;;;25.53;100.00;99990.33;105855;1257;63928;-44
2023/07/03 05:36:30;;;;;;;9.10;2.30;;;;;;;25.82;100.00;99996.90;105899;1255;71387;-43
2023/07/03 05:38:57;;;;;;;7.90;3.20;;;;;;;26.09;100.00;100011.80;105781;1251;60478;-45
2023/07/03 05:41:25;;;;;;;8.90;2.80;;;;;;;26.38;100.00;100021.57;105886;1251;59715;-43
2023/07/03 05:43:53;;;;;;;11.70;2.70;;;;;;;26.63;100.00;100038.45;105805;1251;71815;-43
2023/07/03 05:46:20;;;;;;;6.30;2.60;;;;;;;26.90;100.00;100038.55;105758;1251;63740;-45
2023/07/03 05:48:49;;;;;;;6.20;2.70;;;;;;;26.94;100.00;100053.98;105821;1257;71359;-43
2023/07/03 05:51:16;;;;;;;9.60;2.40;;;;;;;26.79;100.00;100068.66;105919;1251;60097;-50
2023/07/03 05:53:44;;;;;;;8.10;2.90;;;;;;;26.66;100.00;100078.65;105650;1251;60511;-43
2023/07/03 05:56:12;;;;;;;3.00;2.60;;;;;;;26.59;100.00;100082.65;105715;1251;73026;-46
2023/07/03 05:58:39;;;;;;;4.80;2.30;;;;;;;26.38;100.00;100085.98;105799;1251;63431;-43
2023/07/03 06:01:08;;;;;;;8.30;3.00;;;;;;;26.18;100.00;100093.05;105765;1254;71446;-43
2023/07/03 06:03:35;;;;;;;3.20;2.30;;;;;;;26.01;100.00;100104.62;105854;1254;59636;-44
2023/07/03 06:06:08;;;;;;;6.40;2.20;;;;;;;25.93;100.00;100099.64;105778;1251;60065;-44
2023/07/03 06:08:36;;;;;;;6.10;2.50;;;;;;;25.78;100.00;100097.48;105841;1258;72678;-42
2023/07/03 06:11:03;;;;;;;7.10;2.40;;;;;;;25.76;100.00;100096.58;105801;1254;63930;-43
2023/07/03 06:13:31;;;;;;;7.10;2.80;;;;;;;25.96;100.00;100085.25;105759;1257;71894;-42
2023/07/03 06:15:58;;;;;;;5.20;2.30;;;;;;;26.12;100.00;100078.44;105762;1254;60051;-43
2023/07/03 06:18:26;;;;;;;6.90;2.70;;;;;;;26.24;100.00;100078.96;105898;1252;60039;-42
2023/07/03 06:20:54;;;;;;;6.40;2.50;;;;;;;26.31;100.00;100077.20;105788;1254;71814;-42
2023/07/03 06:23:21;;;;;;;6.10;2.70;;;;;;;26.24;100.00;100080.50;105798;1254;64058;-42
2023/07/03 06:25:50;;;;;;;3.80;2.40;;;;;;;26.23;100.00;100089.99;105791;1259;70441;-44
2023/07/03 06:28:18;;;;;;;6.00;2.80;;;;;;;26.26;100.00;100094.45;105919;1254;59705;-44
2023/07/03 06:30:49;;;;;;;8.70;2.80;;;;;;;26.27;100.00;100097.71;105758;1257;59541;-43
2023/07/03 06:33:17;;;;;;;5.00;2.90;;;;;;;26.21;100.00;100110.27;105876;1254;71782;-42
2023/07/03 06:35:47;;;;;;;7.30;2.80;;;;;;;26.16;100.00;100115.18;105781;1254;64139;-45
2023/07/03 06:38:15;;;;;;;8.10;3.00;;;;;;;26.18;100.00;100107.61;105967;1254;72131;-43
2023/07/03 06:40:42;;;;;;;8.30;2.70;;;;;;;26.20;100.00;100107.59;105750;1258;59705;-45
2023/07/03 06:43:11;;;;;;;7.50;3.10;;;;;;;26.23;100.00;100112.93;105789;1258;59612;-43
2023/07/03 06:45:39;;;;;;;11.20;4.20;;;;;;;26.27;100.00;100105.38;105825;1252;73025;-44
2023/07/03 06:48:06;;;;;;;6.90;3.40;;;;;;;26.17;100.00;100110.63;105789;1254;64783;-44
2023/07/03 06:50:34;;;;;;;8.30;3.60;;;;;;;26.01;100.00;100121.98;105866;1254;72596;-45
2023/07/03 06:53:02;;;;;;;8.30;3.90;;;;;;;25.92;100.00;100121.13;105785;1254;59723;-44
2023/07/03 06:55:30;;;;;;;4.50;3.80;;;;;;;25.88;100.00;100119.89;105792;1254;59697;-45
2023/07/03 06:58:00;;;;;;;13.10;3.10;;;;;;;25.88;100.00;100118.17;105895;1256;73035;-43
2023/07/03 07:00:29;;;;;;;7.10;3.10;;;;;;;25.78;100.00;100118.66;105807;1254;64407;-43
2023/07/03 07:02:56;;;;;;;9.00;3.70;;;;;;;25.61;100.00;100114.82;105792;1259;72758;-44
2023/07/03 07:05:28;;;;;;;12.80;3.00;;;;;;;25.39;100.00;100114.55;105783;1257;60685;-45
2023/07/03 07:07:56;;;;;;;5.50;2.90;;;;;;;25.15;100.00;100114.31;105929;1257;59679;-45
2023/07/03 07:10:24;;;;;;;3.90;2.80;;;;;;;25.02;100.00;100107.71;105861;1253;71806;-43
2023/07/03 07:12:51;;;;;;;7.70;2.50;;;;;;;25.00;100.00;100090.05;105775;1254;63763;-44
2023/07/03 07:15:19;;;;;;;11.40;2.90;;;;;;;25.01;100.00;100075.45;105851;1254;70802;-45
2023/07/03 07:17:47;;;;;;;16.50;2.80;;;;;;;24.89;100.00;100074.67;105802;1254;60055;-44
2023/07/03 07:20:18;;;;;;;9.20;2.80;;;;;;;24.78;100.00;100082.31;105900;1256;59612;-44
2023/07/03 07:22:48;;;;;;;7.60;2.90;;;;;;;24.65;100.00;100091.99;105902;1254;71810;-45
2023/07/03 07:25:15;;;;;;;7.30;3.10;;;;;;;24.65;100.00;100082.30;105837;1257;65281;-43
2023/07/03 07:27:43;;;;;;;11.30;3.10;;;;;;;24.66;100.00;100088.41;105799;1259;71352;-44
2023/07/03 07:30:12;;;;;;;6.50;2.50;;;;;;;24.78;100.00;100077.39;105788;1254;60427;-45
2023/07/03 07:32:39;;;;;;;6.80;2.90;;;;;;;24.84;100.00;100077.03;105928;1254;59562;-45
2023/07/03 07:35:08;;;;;;;7.30;3.20;;;;;;;24.89;100.00;100084.61;105826;1252;71726;-46
2023/07/03 07:37:35;;;;;;;6.80;3.20;;;;;;;25.03;100.00;100082.22;105833;1254;64225;-43
2023/07/03 07:40:04;;;;;;;7.50;2.90;;;;;;;25.11;100.00;100098.05;105821;1254;71467;-41
2023/07/03 07:42:31;;;;;;;9.30;3.10;;;;;;;25.21;100.00;100106.55;105843;1259;59671;-45
2023/07/03 07:44:59;;;;;;;7.30;2.90;;;;;;;25.45;100.00;100105.27;105914;1254;59982;-43
2023/07/03 07:47:28;;;;;;;6.30;2.50;;;;;;;25.66;100.00;100112.11;105900;1254;73046;-45
2023/07/03 07:49:58;;;;;;;13.60;3.30;;;;;;;25.91;100.00;100121.56;105843;1258;65149;-44
2023/07/03 07:52:26;;;;;;;10.30;2.80;;;;;;;26.28;100.00;100131.45;105836;1254;71523;-44
2023/07/03 07:54:55;;;;;;;10.10;3.30;;;;;;;26.65;100.00;100138.73;105824;1254;60035;-44
2023/07/03 07:57:24;;;;;;;7.90;3.10;;;;;;;26.95;100.00;100147.00;105864;1259;59696;-46
2023/07/03 07:59:52;;;;;;;8.40;3.00;;;;;;;27.23;100.00;100157.11;105833;1253;71908;-49
2023/07/03 08:02:20;;;;;;;8.50;2.90;;;;;;;27.50;100.00;100153.90;105652;1254;64415;-43
2023/07/03 08:04:48;;;;;;;8.40;3.00;;;;;;;27.64;97.38;100162.42;105810;1254;71377;-48
2023/07/03 08:07:17;;;;;;;12.40;3.10;;;;;;;27.78;91.07;100166.91;105897;1254;59602;-43
2023/07/03 08:09:45;;;;;;;25.90;3.80;;;;;;;27.84;92.85;100184.73;105853;1257;59532;-45
2023/07/03 08:12:13;;;;;;;16.90;3.20;;;;;;;27.93;87.47;100175.53;105893;1257;72953;-44
2023/07/03 08:14:41;;;;;;;8.50;2.60;;;;;;;27.89;85.82;100185.88;105796;1258;63560;-42
2023/07/03 08:17:09;;;;;;;6.40;2.90;;;;;;;27.81;85.42;100192.16;105924;1257;71327;-45
2023/07/03 08:19:36;;;;;;;9.00;3.20;;;;;;;27.63;96.79;100216.69;105846;1259;60488;-43
2023/07/03 08:22:05;;;;;;;4.90;3.10;;;;;;;27.63;100.00;100227.70;105833;1257;60339;-44
2023/07/03 08:24:33;;;;;;;6.00;2.90;;;;;;;27.70;100.00;100213.34;105894;1252;72588;-45
2023/07/03 08:27:01;;;;;;;10.70;3.10;;;;;;;27.67;99.03;100209.27;105914;1254;63402;-44
2023/07/03 08:29:28;;;;;;;13.20;3.20;;;;;;;27.62;96.16;100205.50;105800;1253;71904;-42
2023/07/03 08:31:57;;;;;;;25.90;5.40;;;;;;;27.56;99.35;100222.54;105837;1254;60537;-42
2023/07/03 08:34:25;;;;;;;292.60;16.90;;;;;;;27.60;96.01;100213.09;105889;1252;60593;-43
2023/07/03 08:36:53;;;;;;;23.00;4.50;;;;;;;27.61;98.28;100226.09;105772;1259;72590;-44
2023/07/03 08:39:24;;;;;;;6.50;3.00;;;;;;;27.86;95.11;100214.46;105785;1255;63914;-44
2023/07/03 08:42:23;;;;;;;7.10;3.70;;;;;;;28.20;82.63;100192.48;105777;1254;72661;-44
2023/07/03 08:44:51;;;;;;;10.60;4.00;;;;;;;28.45;71.56;100132.23;105688;1254;60611;-44
2023/07/03 08:47:24;;;;;;;9.20;4.20;;;;;;;28.56;70.98;100158.15;105809;1260;60431;-43
2023/07/03 08:49:52;;;;;;;8.10;3.50;;;;;;;28.58;69.14;100151.58;105807;1254;72625;-44
2023/07/03 08:52:24;;;;;;;5.40;3.30;;;;;;;28.49;68.78;100164.85;105885;1257;64062;-46
2023/07/03 08:54:52;;;;;;;7.40;2.90;;;;;;;28.42;67.55;100163.56;105886;1254;71688;-43
2023/07/03 08:57:20;;;;;;;11.20;3.30;;;;;;;28.30;68.05;100186.63;105895;1256;60511;-45
2023/07/03 08:59:48;;;;;;;7.70;3.10;;;;;;;28.20;71.39;100234.77;105851;1259;60368;-44
2023/07/03 09:02:25;;;;;;;11.70;3.40;;;;;;;28.22;72.47;100235.77;105799;1259;73805;-41
2023/07/03 09:04:57;;;;;;;8.00;3.40;;;;;;;28.26;73.20;100237.90;105908;1256;63941;-44
2023/07/03 09:07:56;;;;;;;5.10;3.10;;;;;;;28.36;72.66;100225.02;105853;1258;72381;-42
2023/07/03 09:10:42;;;;;;;8.40;3.60;;;;;;;28.33;71.58;100216.65;105776;1254;60533;-44
2023/07/03 09:13:14;;;;;;;6.00;4.10;;;;;;;28.18;67.95;100179.73;105876;1256;60332;-44
2023/07/03 09:16:05;;;;;;;7.70;3.80;;;;;;;27.94;68.94;100215.52;105833;1254;72538;-45
2023/07/03 09:18:43;;;;;;;6.20;3.50;;;;;;;27.72;71.10;100239.05;105855;1256;64393;-46
2023/07/03 09:21:11;;;;;;;7.30;3.70;;;;;;;27.64;71.93;100243.87;105836;1254;71382;-45
2023/07/03 09:23:55;;;;;;;6.10;3.90;;;;;;;27.61;71.28;100232.14;105861;1254;60539;-44
2023/07/03 09:26:44;;;;;;;5.30;3.90;;;;;;;27.60;70.00;100221.23;105856;1259;60418;-42
2023/07/03 09:29:12;;;;;;;7.20;3.30;;;;;;;27.54;69.81;100226.05;105844;1259;73805;-43
2023/07/03 09:31:40;;;;;;;7.90;4.10;;;;;;;27.46;68.37;100214.67;105863;1259;64020;-44
2023/07/03 09:34:08;;;;;;;7.10;3.70;;;;;;;27.42;69.26;100231.59;105838;1258;71424;-43
2023/07/03 09:36:37;;;;;;;7.20;3.80;;;;;;;27.48;70.63;100248.38;105841;1259;60540;-43
2023/07/03 09:39:12;;;;;;;7.40;4.30;;;;;;;27.47;72.54;100259.80;105858;1252;60530;-43
2023/07/03 09:41:40;;;;;;;23.60;5.10;;;;;;;27.48;78.02;100281.08;105860;1252;72555;-43
2023/07/03 09:44:12;;;;;;;9.00;4.20;;;;;;;27.49;79.06;100270.58;105823;1254;65716;-45
2023/07/03 09:46:41;;;;;;;9.80;4.50;;;;;;;27.51;76.89;100252.52;105881;1254;70307;-45
2023/07/03 09:49:20;;;;;;;5.60;3.50;;;;;;;27.51;79.46;100262.09;105870;1259;60527;-45
2023/07/03 09:51:51;;;;;;;6.20;3.00;;;;;;;27.46;74.51;100238.08;105836;1257;60402;-45
2023/07/03 09:54:21;;;;;;;6.90;3.30;;;;;;;27.31;72.01;100231.91;105863;1256;73840;-43
2023/07/03 09:56:49;;;;;;;6.30;3.10;;;;;;;27.19;73.84;100249.25;105920;1256;64470;-43
2023/07/03 09:59:19;;;;;;;6.60;3.10;;;;;;;27.17;74.46;100249.95;105862;1254;72733;-46
2023/07/03 10:01:47;;;;;;;3.00;2.40;;;;;;;27.18;76.06;100259.40;105901;1256;60529;-44
2023/07/03 10:04:18;;;;;;;3.00;2.70;;;;;;;27.23;79.76;100264.64;105915;1253;60504;-48
2023/07/03 10:06:58;;;;;;;9.10;3.20;;;;;;;27.28;77.03;100250.34;105824;1257;73781;-46
2023/07/03 10:09:31;;;;;;;9.20;3.50;;;;;;;27.36;74.87;100239.02;105718;1254;64554;-45
2023/07/03 10:12:10;;;;;;;3.80;2.90;;;;;;;27.34;76.00;100249.96;105878;1254;71389;-46
2023/07/03 10:15:06;;;;;;;4.50;3.50;;;;;;;27.40;74.22;100235.83;105878;1254;60447;-43
2023/07/03 10:17:37;;;;;;;7.40;4.00;;;;;;;27.50;72.68;100236.80;105898;1257;60460;-43
2023/07/03 10:20:09;;;;;;;9.00;3.70;;;;;;;27.65;72.25;100225.02;105847;1254;73790;-42
2023/07/03 10:22:38;;;;;;;9.10;3.20;;;;;;;28.02;73.11;100230.55;105857;1254;63942;-45
2023/07/03 10:25:08;;;;;;;5.40;3.00;;;;;;;28.61;70.13;100185.35;105908;1254;71408;-42
2023/07/03 10:27:36;;;;;;;3.30;2.20;;;;;;;29.05;64.77;100117.80;105888;1254;60519;-44
2023/07/03 10:30:05;;;;;;;3.00;2.00;;;;;;;29.10;57.29;99951.90;105673;1257;60344;-44
2023/07/03 10:32:33;;;;;;;4.80;2.10;;;;;;;28.91;57.68;100021.85;105883;1254;72598;-45
2023/07/03 10:35:08;;;;;;;3.00;2.00;;;;;;;28.66;56.89;100029.75;105872;1258;65107;-45
2023/07/03 10:38:06;;;;;;;4.50;1.90;;;;;;;28.75;59.55;100128.52;105881;1254;72684;-45
2023/07/03 10:40:38;;;;;;;3.10;2.00;;;;;;;29.32;56.09;100005.83;105882;1254;60515;-44
2023/07/03 10:43:06;;;;;;;4.10;2.10;;;;;;;29.57;55.71;100007.98;105724;1256;61061;-44
2023/07/03 10:45:35;;;;;;;2.70;2.00;;;;;;;29.67;52.74;99883.52;105747;1259;73857;-43
2023/07/03 10:48:10;;;;;;;4.40;1.70;;;;;;;29.76;53.05;99925.61;105912;1254;65259;-42
2023/07/03 10:50:50;;;;;;;4.10;2.00;;;;;;;30.10;53.49;99968.09;105852;1254;72622;-46
2023/07/03 10:53:25;;;;;;;6.00;1.80;;;;;;;30.35;53.57;99973.84;105874;1257;60472;-42
2023/07/03 10:56:05;;;;;;;2.20;1.90;;;;;;;30.18;53.43;99978.00;105936;1254;60417;-44
2023/07/03 10:59:10;;;;;;;3.00;1.80;;;;;;;30.06;55.40;100076.73;105897;1259;73865;-43
2023/07/03 11:02:02;;;;;;;2.50;1.80;;;;;;;30.03;53.99;99990.85;105832;1259;64052;-42
2023/07/03 11:04:33;;;;;;;5.90;2.10;;;;;;;29.93;53.75;99991.71;105872;1257;71376;-44
2023/07/03 11:07:07;;;;;;;1.90;1.80;;;;;;;29.92;54.92;100058.83;105711;1254;60516;-46
2023/07/03 11:09:47;;;;;;;2.30;2.10;;;;;;;30.05;53.94;100009.65;105903;1257;60554;-43
2023/07/03 11:12:50;;;;;;;3.10;2.00;;;;;;;30.17;52.08;99899.48;105967;1254;73883;-43
2023/07/03 11:15:33;;;;;;;3.90;1.80;;;;;;;30.31;50.67;99819.88;105804;1254;65170;-43
2023/07/03 11:18:04;;;;;;;2.50;1.80;;;;;;;30.58;51.11;99858.67;105834;1267;72835;-44
2023/07/03 11:20:40;;;;;;;6.00;2.00;;;;;;;30.93;51.72;99926.38;105850;1257;60435;-45
2023/07/03 11:23:32;;;;;;;5.30;2.20;;;;;;;31.23;50.10;99805.54;105873;1258;60335;-43
2023/07/03 11:26:24;;;;;;;5.40;2.20;;;;;;;31.52;52.36;99964.58;105901;1254;73758;-45